sensor_id;sensor_type;location;lat;lon;timestamp;temperature;humidity
484;DHT22;228;48.922;12.198;2023-09-12T04:02:52;18.20;94.20
484;DHT22;228;48.922;12.198;2023-09-12T04:05:18;18.00;94.90
484;DHT22;228;48.922;12.198;2023-09-12T04:07:44;18.00;94.90
484;DHT22;228;48.922;12.198;2023-09-12T04:10:10;18.00;94.90
484;DHT22;228;48.922;12.198;2023-09-12T04:12:40;17.90;95.10
484;DHT22;228;48.922;12.198;2023-09-12T04:15:06;17.90;95.40
484;DHT22;228;48.922;12.198;2023-09-12T04:17:32;18.00;95.30
484;DHT22;228;48.922;12.198;2023-09-12T04:19:58;18.10;95.10
484;DHT22;228;48.922;12.198;2023-09-12T04:22:24;18.20;94.80
484;DHT22;228;48.922;12.198;2023-09-12T04:24:50;18.20;94.60
484;DHT22;228;48.922;12.198;2023-09-12T04:27:16;18.10;94.60
484;DHT22;228;48.922;12.198;2023-09-12T04:29:42;18.20;94.50
484;DHT22;228;48.922;12.198;2023-09-12T04:32:09;18.20;94.50
484;DHT22;228;48.922;12.198;2023-09-12T04:34:35;17.90;95.00
484;DHT22;228;48.922;12.198;2023-09-12T04:37:01;17.80;95.40
484;DHT22;228;48.922;12.198;2023-09-12T04:39:28;17.90;95.40
484;DHT22;228;48.922;12.198;2023-09-12T04:41:56;17.90;95.40
484;DHT22;228;48.922;12.198;2023-09-12T04:44:22;17.90;95.40
484;DHT22;228;48.922;12.198;2023-09-12T04:46:48;17.90;95.20
484;DHT22;228;48.922;12.198;2023-09-12T04:49:14;17.90;95.20
484;DHT22;228;48.922;12.198;2023-09-12T04:51:40;18.00;95.00
484;DHT22;228;48.922;12.198;2023-09-12T04:54:28;18.00;95.10
484;DHT22;228;48.922;12.198;2023-09-12T04:56:54;17.90;96.00
484;DHT22;228;48.922;12.198;2023-09-12T04:59:20;18.00;95.90
484;DHT22;228;48.922;12.198;2023-09-12T05:01:46;18.10;95.70
484;DHT22;228;48.922;12.198;2023-09-12T05:04:13;18.20;95.70
484;DHT22;228;48.922;12.198;2023-09-12T05:06:39;18.30;95.60
484;DHT22;228;48.922;12.198;2023-09-12T05:09:06;18.40;95.50
484;DHT22;228;48.922;12.198;2023-09-12T05:11:34;18.50;95.40
484;DHT22;228;48.922;12.198;2023-09-12T05:14:01;18.60;95.30
484;DHT22;228;48.922;12.198;2023-09-12T05:16:29;18.60;95.20
484;DHT22;228;48.922;12.198;2023-09-12T05:18:55;18.70;95.30
484;DHT22;228;48.922;12.198;2023-09-12T05:21:22;18.80;95.30
484;DHT22;228;48.922;12.198;2023-09-12T05:23:48;18.90;95.20
484;DHT22;228;48.922;12.198;2023-09-12T05:26:14;18.90;95.10
484;DHT22;228;48.922;12.198;2023-09-12T05:28:40;19.00;95.10
484;DHT22;228;48.922;12.198;2023-09-12T05:31:05;19.10;95.10
484;DHT22;228;48.922;12.198;2023-09-12T05:33:33;19.10;95.10
484;DHT22;228;48.922;12.198;2023-09-12T05:35:59;19.20;95.00
484;DHT22;228;48.922;12.198;2023-09-12T05:38:25;19.30;94.90
484;DHT22;228;48.922;12.198;2023-09-12T05:40:51;19.40;94.80
484;DHT22;228;48.922;12.198;2023-09-12T05:43:17;19.40;94.90
484;DHT22;228;48.922;12.198;2023-09-12T05:45:44;19.40;94.90
484;DHT22;228;48.922;12.198;2023-09-12T05:48:10;19.40;95.10
484;DHT22;228;48.922;12.198;2023-09-12T05:50:37;19.30;95.60
484;DHT22;228;48.922;12.198;2023-09-12T05:53:03;19.30;96.30
484;DHT22;228;48.922;12.198;2023-09-12T05:55:29;19.40;96.90
484;DHT22;228;48.922;12.198;2023-09-12T05:57:55;19.70;96.60
484;DHT22;228;48.922;12.198;2023-09-12T06:00:21;19.80;96.30
484;DHT22;228;48.922;12.198;2023-09-12T06:02:48;19.90;96.30
484;DHT22;228;48.922;12.198;2023-09-12T06:05:15;20.20;96.10
484;DHT22;228;48.922;12.198;2023-09-12T06:07:41;20.00;96.20
484;DHT22;228;48.922;12.198;2023-09-12T06:10:08;20.10;95.80
484;DHT22;228;48.922;12.198;2023-09-12T06:12:34;20.00;96.00
484;DHT22;228;48.922;12.198;2023-09-12T06:15:02;19.80;96.40
484;DHT22;228;48.922;12.198;2023-09-12T06:17:31;19.70;96.60
484;DHT22;228;48.922;12.198;2023-09-12T06:19:57;20.00;96.20
484;DHT22;228;48.922;12.198;2023-09-12T06:22:23;19.70;96.40
484;DHT22;228;48.922;12.198;2023-09-12T06:24:50;19.70;96.50
484;DHT22;228;48.922;12.198;2023-09-12T06:27:19;19.50;96.60
484;DHT22;228;48.922;12.198;2023-09-12T06:29:48;19.30;97.90
484;DHT22;228;48.922;12.198;2023-09-12T06:32:16;19.70;97.30
484;DHT22;228;48.922;12.198;2023-09-12T06:34:42;19.90;96.40
484;DHT22;228;48.922;12.198;2023-09-12T06:37:10;19.90;95.90
484;DHT22;228;48.922;12.198;2023-09-12T06:39:36;20.00;96.30
484;DHT22;228;48.922;12.198;2023-09-12T06:42:02;19.90;96.00
484;DHT22;228;48.922;12.198;2023-09-12T06:44:29;20.10;96.10
484;DHT22;228;48.922;12.198;2023-09-12T06:46:55;20.40;95.80
484;DHT22;228;48.922;12.198;2023-09-12T06:49:21;20.70;94.40
484;DHT22;228;48.922;12.198;2023-09-12T06:51:47;21.20;94.00
484;DHT22;228;48.922;12.198;2023-09-12T06:54:13;21.20;93.60
484;DHT22;228;48.922;12.198;2023-09-12T06:56:40;21.10;93.60
484;DHT22;228;48.922;12.198;2023-09-12T06:59:08;21.30;93.10
484;DHT22;228;48.922;12.198;2023-09-12T07:01:34;21.10;93.60
484;DHT22;228;48.922;12.198;2023-09-12T07:04:01;21.00;93.70
484;DHT22;228;48.922;12.198;2023-09-12T07:06:28;21.40;93.20
484;DHT22;228;48.922;12.198;2023-09-12T07:08:54;21.60;92.70
484;DHT22;228;48.922;12.198;2023-09-12T07:11:21;21.90;92.20
484;DHT22;228;48.922;12.198;2023-09-12T07:13:47;22.10;91.80
484;DHT22;228;48.922;12.198;2023-09-12T07:16:13;22.20;91.60
484;DHT22;228;48.922;12.198;2023-09-12T07:18:39;22.50;90.70
484;DHT22;228;48.922;12.198;2023-09-12T07:21:05;22.50;91.00
484;DHT22;228;48.922;12.198;2023-09-12T07:23:32;23.00;90.10
484;DHT22;228;48.922;12.198;2023-09-12T07:25:58;23.00;89.40
484;DHT22;228;48.922;12.198;2023-09-12T07:28:28;23.40;88.30
484;DHT22;228;48.922;12.198;2023-09-12T07:30:58;23.40;87.90
484;DHT22;228;48.922;12.198;2023-09-12T07:33:25;23.40;89.00
484;DHT22;228;48.922;12.198;2023-09-12T07:35:54;23.60;87.30
484;DHT22;228;48.922;12.198;2023-09-12T07:38:21;23.00;88.60
484;DHT22;228;48.922;12.198;2023-09-12T07:40:47;23.30;88.00
484;DHT22;228;48.922;12.198;2023-09-12T07:43:13;23.70;87.30
484;DHT22;228;48.922;12.198;2023-09-12T07:45:39;23.50;86.70
484;DHT22;228;48.922;12.198;2023-09-12T07:48:07;23.40;88.20
484;DHT22;228;48.922;12.198;2023-09-12T07:50:33;23.70;87.70
484;DHT22;228;48.922;12.198;2023-09-12T07:53:00;24.20;86.50
484;DHT22;228;48.922;12.198;2023-09-12T07:55:26;24.40;87.90
484;DHT22;228;48.922;12.198;2023-09-12T07:57:55;24.40;90.00
484;DHT22;228;48.922;12.198;2023-09-12T08:00:21;24.40;90.40
484;DHT22;228;48.922;12.198;2023-09-12T08:02:47;24.30;87.20
484;DHT22;228;48.922;12.198;2023-09-12T08:05:13;24.40;84.10
484;DHT22;228;48.922;12.198;2023-09-12T08:07:40;24.90;82.90
484;DHT22;228;48.922;12.198;2023-09-12T08:10:06;25.20;82.20
484;DHT22;228;48.922;12.198;2023-09-12T08:12:33;25.20;80.60
484;DHT22;228;48.922;12.198;2023-09-12T08:14:59;25.00;82.20
484;DHT22;228;48.922;12.198;2023-09-12T08:17:25;25.10;83.60
484;DHT22;228;48.922;12.198;2023-09-12T08:19:52;25.40;84.30
484;DHT22;228;48.922;12.198;2023-09-12T08:22:18;25.70;82.00
484;DHT22;228;48.922;12.198;2023-09-12T08:24:45;25.50;80.40
484;DHT22;228;48.922;12.198;2023-09-12T08:27:11;25.40;81.40
484;DHT22;228;48.922;12.198;2023-09-12T08:29:37;25.50;80.10
484;DHT22;228;48.922;12.198;2023-09-12T08:32:04;25.90;82.00
484;DHT22;228;48.922;12.198;2023-09-12T08:34:30;26.20;85.10
484;DHT22;228;48.922;12.198;2023-09-12T08:36:56;26.40;76.20
484;DHT22;228;48.922;12.198;2023-09-12T08:39:27;26.50;75.80
484;DHT22;228;48.922;12.198;2023-09-12T08:41:54;26.40;76.80
484;DHT22;228;48.922;12.198;2023-09-12T08:44:21;26.30;77.20
484;DHT22;228;48.922;12.198;2023-09-12T08:46:47;26.80;74.70
484;DHT22;228;48.922;12.198;2023-09-12T08:49:14;26.40;73.70
484;DHT22;228;48.922;12.198;2023-09-12T08:51:41;26.70;75.20
484;DHT22;228;48.922;12.198;2023-09-12T08:54:08;27.00;74.20
484;DHT22;228;48.922;12.198;2023-09-12T08:56:36;27.30;72.40
484;DHT22;228;48.922;12.198;2023-09-12T08:59:05;27.40;71.40
484;DHT22;228;48.922;12.198;2023-09-12T09:01:32;27.40;72.30
484;DHT22;228;48.922;12.198;2023-09-12T09:04:02;27.30;72.00
484;DHT22;228;48.922;12.198;2023-09-12T09:06:33;27.10;72.90
484;DHT22;228;48.922;12.198;2023-09-12T09:09:07;26.60;73.60
484;DHT22;228;48.922;12.198;2023-09-12T09:11:34;27.20;72.90
484;DHT22;228;48.922;12.198;2023-09-12T09:14:03;27.70;70.70
484;DHT22;228;48.922;12.198;2023-09-12T09:16:32;28.00;68.70
484;DHT22;228;48.922;12.198;2023-09-12T09:19:09;28.10;69.30
484;DHT22;228;48.922;12.198;2023-09-12T09:21:44;28.50;67.20
484;DHT22;228;48.922;12.198;2023-09-12T09:24:14;28.40;67.70
484;DHT22;228;48.922;12.198;2023-09-12T09:26:52;28.60;65.00
484;DHT22;228;48.922;12.198;2023-09-12T09:29:25;28.60;63.90
484;DHT22;228;48.922;12.198;2023-09-12T09:31:52;28.80;63.70
484;DHT22;228;48.922;12.198;2023-09-12T09:34:20;28.90;63.50
484;DHT22;228;48.922;12.198;2023-09-12T09:36:50;28.90;65.20
484;DHT22;228;48.922;12.198;2023-09-12T09:39:19;28.90;64.10
484;DHT22;228;48.922;12.198;2023-09-12T09:41:55;28.50;63.20
484;DHT22;228;48.922;12.198;2023-09-12T09:44:23;28.90;64.10
484;DHT22;228;48.922;12.198;2023-09-12T09:46:58;29.60;62.40
484;DHT22;228;48.922;12.198;2023-09-12T09:49:31;29.90;62.00
484;DHT22;228;48.922;12.198;2023-09-12T09:52:04;29.90;61.30
484;DHT22;228;48.922;12.198;2023-09-12T09:54:31;30.10;61.10
484;DHT22;228;48.922;12.198;2023-09-12T09:56:59;29.90;60.00
484;DHT22;228;48.922;12.198;2023-09-12T09:59:27;30.20;60.80
484;DHT22;228;48.922;12.198;2023-09-12T10:01:59;30.60;60.10
484;DHT22;228;48.922;12.198;2023-09-12T10:04:27;30.80;59.10
484;DHT22;228;48.922;12.198;2023-09-12T10:06:56;31.30;57.90
484;DHT22;228;48.922;12.198;2023-09-12T10:09:28;31.00;57.00
484;DHT22;228;48.922;12.198;2023-09-12T10:11:58;31.20;57.00
484;DHT22;228;48.922;12.198;2023-09-12T10:14:27;30.80;54.60
484;DHT22;228;48.922;12.198;2023-09-12T10:17:01;30.10;56.80
484;DHT22;228;48.922;12.198;2023-09-12T10:19:51;30.60;58.00
484;DHT22;228;48.922;12.198;2023-09-12T10:22:25;31.10;56.50
484;DHT22;228;48.922;12.198;2023-09-12T10:24:56;31.50;54.50
484;DHT22;228;48.922;12.198;2023-09-12T10:27:24;31.10;54.80
484;DHT22;228;48.922;12.198;2023-09-12T10:29:52;30.80;55.90
484;DHT22;228;48.922;12.198;2023-09-12T10:32:20;31.00;56.50
484;DHT22;228;48.922;12.198;2023-09-12T10:34:49;31.20;55.20
484;DHT22;228;48.922;12.198;2023-09-12T10:37:16;31.40;55.50
484;DHT22;228;48.922;12.198;2023-09-12T10:39:46;31.90;52.30
484;DHT22;228;48.922;12.198;2023-09-12T10:42:13;32.20;53.60
484;DHT22;228;48.922;12.198;2023-09-12T10:44:42;32.60;50.50
484;DHT22;228;48.922;12.198;2023-09-12T10:47:09;33.10;51.50
484;DHT22;228;48.922;12.198;2023-09-12T10:49:37;32.90;52.80
484;DHT22;228;48.922;12.198;2023-09-12T10:52:04;32.90;51.50
484;DHT22;228;48.922;12.198;2023-09-12T10:54:38;32.80;51.20
484;DHT22;228;48.922;12.198;2023-09-12T10:57:10;33.50;49.00
484;DHT22;228;48.922;12.198;2023-09-12T11:02:37;33.70;48.20
484;DHT22;228;48.922;12.198;2023-09-12T11:10:24;34.70;50.20
484;DHT22;228;48.922;12.198;2023-09-12T11:12:55;34.30;48.90
484;DHT22;228;48.922;12.198;2023-09-12T11:15:26;34.80;47.20
484;DHT22;228;48.922;12.198;2023-09-12T11:18:06;35.10;46.40
484;DHT22;228;48.922;12.198;2023-09-12T11:23:15;36.00;40.30
484;DHT22;228;48.922;12.198;2023-09-12T11:25:41;37.20;40.20
484;DHT22;228;48.922;12.198;2023-09-12T11:30:34;39.40;38.50
484;DHT22;228;48.922;12.198;2023-09-12T11:33:04;41.10;34.90
484;DHT22;228;48.922;12.198;2023-09-12T11:35:36;41.70;35.00
484;DHT22;228;48.922;12.198;2023-09-12T11:38:04;42.30;30.50
484;DHT22;228;48.922;12.198;2023-09-12T11:43:00;44.20;31.90
484;DHT22;228;48.922;12.198;2023-09-12T11:45:27;44.80;27.70
484;DHT22;228;48.922;12.198;2023-09-12T11:47:54;45.70;29.20
484;DHT22;228;48.922;12.198;2023-09-12T11:50:34;45.70;26.50
484;DHT22;228;48.922;12.198;2023-09-12T11:53:11;45.70;27.50
484;DHT22;228;48.922;12.198;2023-09-12T11:55:44;43.80;27.20
484;DHT22;228;48.922;12.198;2023-09-12T12:00:37;41.60;29.20
484;DHT22;228;48.922;12.198;2023-09-12T12:03:04;42.70;29.00
484;DHT22;228;48.922;12.198;2023-09-12T12:05:30;43.30;27.90
484;DHT22;228;48.922;12.198;2023-09-12T12:07:58;43.50;29.30
484;DHT22;228;48.922;12.198;2023-09-12T12:10:25;42.30;28.60
484;DHT22;228;48.922;12.198;2023-09-12T12:12:53;41.40;29.40
484;DHT22;228;48.922;12.198;2023-09-12T12:15:20;40.90;30.80
484;DHT22;228;48.922;12.198;2023-09-12T12:17:46;41.40;29.40
484;DHT22;228;48.922;12.198;2023-09-12T12:20:12;43.30;27.40
484;DHT22;228;48.922;12.198;2023-09-12T12:22:39;44.60;26.70
484;DHT22;228;48.922;12.198;2023-09-12T12:25:10;44.80;26.10
484;DHT22;228;48.922;12.198;2023-09-12T12:27:41;45.30;26.10
484;DHT22;228;48.922;12.198;2023-09-12T12:30:14;45.90;25.00
484;DHT22;228;48.922;12.198;2023-09-12T12:32:44;45.20;25.80
484;DHT22;228;48.922;12.198;2023-09-12T12:35:20;43.80;26.80
484;DHT22;228;48.922;12.198;2023-09-12T12:37:50;44.10;28.10
484;DHT22;228;48.922;12.198;2023-09-12T12:40:17;44.30;26.20
484;DHT22;228;48.922;12.198;2023-09-12T12:42:44;44.90;25.80
484;DHT22;228;48.922;12.198;2023-09-12T12:45:12;45.00;26.20
484;DHT22;228;48.922;12.198;2023-09-12T12:47:39;46.00;26.00
484;DHT22;228;48.922;12.198;2023-09-12T12:50:15;44.40;27.90
484;DHT22;228;48.922;12.198;2023-09-12T12:52:47;44.70;26.80
484;DHT22;228;48.922;12.198;2023-09-12T12:55:15;44.70;27.10
484;DHT22;228;48.922;12.198;2023-09-12T12:57:43;45.00;26.30
484;DHT22;228;48.922;12.198;2023-09-12T13:00:15;44.80;25.30
484;DHT22;228;48.922;12.198;2023-09-12T13:02:42;45.40;25.50
484;DHT22;228;48.922;12.198;2023-09-12T13:07:50;45.20;26.10
484;DHT22;228;48.922;12.198;2023-09-12T13:10:17;45.00;25.80
484;DHT22;228;48.922;12.198;2023-09-12T13:12:43;43.80;25.90
484;DHT22;228;48.922;12.198;2023-09-12T13:15:12;42.70;28.00
484;DHT22;228;48.922;12.198;2023-09-12T13:17:39;42.20;28.50
484;DHT22;228;48.922;12.198;2023-09-12T13:20:06;41.90;29.40
484;DHT22;228;48.922;12.198;2023-09-12T13:22:40;41.90;28.60
484;DHT22;228;48.922;12.198;2023-09-12T13:25:09;40.70;30.00
484;DHT22;228;48.922;12.198;2023-09-12T13:27:35;39.50;31.00
484;DHT22;228;48.922;12.198;2023-09-12T13:30:01;40.50;31.10
484;DHT22;228;48.922;12.198;2023-09-12T13:32:27;42.50;32.10
484;DHT22;228;48.922;12.198;2023-09-12T13:34:53;43.80;26.70
484;DHT22;228;48.922;12.198;2023-09-12T13:37:19;45.40;26.70
484;DHT22;228;48.922;12.198;2023-09-12T13:39:47;46.30;26.20
484;DHT22;228;48.922;12.198;2023-09-12T13:42:15;45.40;26.70
484;DHT22;228;48.922;12.198;2023-09-12T13:44:46;45.80;25.50
484;DHT22;228;48.922;12.198;2023-09-12T13:47:12;44.30;25.90
484;DHT22;228;48.922;12.198;2023-09-12T13:49:39;44.40;26.90
484;DHT22;228;48.922;12.198;2023-09-12T13:52:05;45.20;25.20
484;DHT22;228;48.922;12.198;2023-09-12T13:54:31;44.80;26.40
484;DHT22;228;48.922;12.198;2023-09-12T13:59:23;47.80;22.80
484;DHT22;228;48.922;12.198;2023-09-12T14:01:49;48.20;23.10
484;DHT22;228;48.922;12.198;2023-09-12T14:04:15;50.00;22.40
484;DHT22;228;48.922;12.198;2023-09-12T14:06:42;50.50;22.50
484;DHT22;228;48.922;12.198;2023-09-12T14:09:08;49.80;22.50
484;DHT22;228;48.922;12.198;2023-09-12T14:11:35;49.10;23.60
484;DHT22;228;48.922;12.198;2023-09-12T14:14:02;48.30;23.40
484;DHT22;228;48.922;12.198;2023-09-12T14:16:28;48.10;23.40
484;DHT22;228;48.922;12.198;2023-09-12T14:18:55;48.70;23.90
484;DHT22;228;48.922;12.198;2023-09-12T14:21:21;49.80;23.10
484;DHT22;228;48.922;12.198;2023-09-12T14:23:47;50.40;21.80
484;DHT22;228;48.922;12.198;2023-09-12T14:26:13;50.00;20.40
484;DHT22;228;48.922;12.198;2023-09-12T14:28:39;48.40;22.40
484;DHT22;228;48.922;12.198;2023-09-12T14:31:05;48.50;21.90
484;DHT22;228;48.922;12.198;2023-09-12T14:33:39;48.40;22.20
484;DHT22;228;48.922;12.198;2023-09-12T14:36:07;46.20;22.70
484;DHT22;228;48.922;12.198;2023-09-12T14:38:34;46.70;23.50
484;DHT22;228;48.922;12.198;2023-09-12T14:41:00;47.20;22.00
484;DHT22;228;48.922;12.198;2023-09-12T14:43:26;48.40;22.40
484;DHT22;228;48.922;12.198;2023-09-12T14:45:54;50.70;21.50
484;DHT22;228;48.922;12.198;2023-09-12T14:48:20;47.60;22.80
484;DHT22;228;48.922;12.198;2023-09-12T14:50:46;48.30;24.70
484;DHT22;228;48.922;12.198;2023-09-12T14:53:15;49.30;22.00
484;DHT22;228;48.922;12.198;2023-09-12T14:55:42;47.10;22.40
484;DHT22;228;48.922;12.198;2023-09-12T14:58:09;46.20;23.80
484;DHT22;228;48.922;12.198;2023-09-12T15:00:35;47.40;22.90
484;DHT22;228;48.922;12.198;2023-09-12T15:03:01;47.40;23.40
484;DHT22;228;48.922;12.198;2023-09-12T15:05:27;47.90;22.10
484;DHT22;228;48.922;12.198;2023-09-12T15:07:53;48.70;21.80
484;DHT22;228;48.922;12.198;2023-09-12T15:10:20;47.10;23.40
484;DHT22;228;48.922;12.198;2023-09-12T15:12:46;46.20;24.20
484;DHT22;228;48.922;12.198;2023-09-12T15:15:12;45.90;22.90
484;DHT22;228;48.922;12.198;2023-09-12T15:17:38;45.70;24.80
484;DHT22;228;48.922;12.198;2023-09-12T15:20:06;45.60;23.80
484;DHT22;228;48.922;12.198;2023-09-12T15:22:32;46.50;23.20
484;DHT22;228;48.922;12.198;2023-09-12T15:24:59;46.90;24.10
484;DHT22;228;48.922;12.198;2023-09-12T15:27:26;47.30;23.90
484;DHT22;228;48.922;12.198;2023-09-12T15:29:52;47.00;23.60
484;DHT22;228;48.922;12.198;2023-09-12T15:32:18;47.30;23.40
484;DHT22;228;48.922;12.198;2023-09-12T15:34:44;45.00;25.10
484;DHT22;228;48.922;12.198;2023-09-12T15:37:11;45.30;25.60
484;DHT22;228;48.922;12.198;2023-09-12T15:39:38;46.20;24.90
484;DHT22;228;48.922;12.198;2023-09-12T15:42:05;45.40;24.80
484;DHT22;228;48.922;12.198;2023-09-12T15:44:31;45.60;26.20
484;DHT22;228;48.922;12.198;2023-09-12T15:46:57;46.00;24.70
484;DHT22;228;48.922;12.198;2023-09-12T15:49:25;46.10;24.70
484;DHT22;228;48.922;12.198;2023-09-12T15:51:51;46.30;24.50
484;DHT22;228;48.922;12.198;2023-09-12T15:54:17;46.30;24.20
484;DHT22;228;48.922;12.198;2023-09-12T15:56:43;45.80;25.20
484;DHT22;228;48.922;12.198;2023-09-12T15:59:09;44.20;26.10
484;DHT22;228;48.922;12.198;2023-09-12T16:01:35;44.20;27.10
484;DHT22;228;48.922;12.198;2023-09-12T16:04:02;44.70;26.40
484;DHT22;228;48.922;12.198;2023-09-12T16:06:28;45.10;26.00
484;DHT22;228;48.922;12.198;2023-09-12T16:08:54;44.80;26.10
484;DHT22;228;48.922;12.198;2023-09-12T16:11:20;44.00;26.60
484;DHT22;228;48.922;12.198;2023-09-12T16:13:46;43.40;27.90
484;DHT22;228;48.922;12.198;2023-09-12T16:16:14;42.90;28.10
484;DHT22;228;48.922;12.198;2023-09-12T16:18:40;42.00;28.60
484;DHT22;228;48.922;12.198;2023-09-12T16:21:08;41.40;29.90
484;DHT22;228;48.922;12.198;2023-09-12T16:23:35;41.70;29.50
484;DHT22;228;48.922;12.198;2023-09-12T16:26:02;42.10;29.30
484;DHT22;228;48.922;12.198;2023-09-12T16:28:28;41.80;29.50
484;DHT22;228;48.922;12.198;2023-09-12T16:30:55;41.80;29.70
484;DHT22;228;48.922;12.198;2023-09-12T16:33:21;41.60;29.70
484;DHT22;228;48.922;12.198;2023-09-12T16:35:48;39.00;32.70
484;DHT22;228;48.922;12.198;2023-09-12T16:38:17;38.30;35.10
484;DHT22;228;48.922;12.198;2023-09-12T16:40:45;36.10;37.40
484;DHT22;228;48.922;12.198;2023-09-12T16:43:11;35.30;39.00
484;DHT22;228;48.922;12.198;2023-09-12T16:45:37;33.50;42.60
484;DHT22;228;48.922;12.198;2023-09-12T16:48:04;32.70;44.80
484;DHT22;228;48.922;12.198;2023-09-12T16:50:31;32.40;45.80
484;DHT22;228;48.922;12.198;2023-09-12T16:52:57;31.30;47.50
484;DHT22;228;48.922;12.198;2023-09-12T16:55:23;29.40;51.90
484;DHT22;228;48.922;12.198;2023-09-12T16:57:51;29.00;53.20
484;DHT22;228;48.922;12.198;2023-09-12T17:00:17;29.20;53.50
484;DHT22;228;48.922;12.198;2023-09-12T17:02:43;29.20;53.50
484;DHT22;228;48.922;12.198;2023-09-12T17:05:10;28.50;55.40
484;DHT22;228;48.922;12.198;2023-09-12T17:07:36;28.60;55.80
484;DHT22;228;48.922;12.198;2023-09-12T17:10:03;28.40;55.90
484;DHT22;228;48.922;12.198;2023-09-12T17:12:30;28.30;56.10
484;DHT22;228;48.922;12.198;2023-09-12T17:14:56;27.90;57.70
484;DHT22;228;48.922;12.198;2023-09-12T17:17:23;27.60;58.50
484;DHT22;228;48.922;12.198;2023-09-12T17:19:49;27.30;59.40
484;DHT22;228;48.922;12.198;2023-09-12T17:22:15;27.00;60.20
484;DHT22;228;48.922;12.198;2023-09-12T17:24:41;27.30;59.60
484;DHT22;228;48.922;12.198;2023-09-12T17:27:09;27.10;60.80
484;DHT22;228;48.922;12.198;2023-09-12T17:29:36;26.80;61.90
484;DHT22;228;48.922;12.198;2023-09-12T17:32:09;26.50;62.90
484;DHT22;228;48.922;12.198;2023-09-12T17:34:43;26.40;63.70
484;DHT22;228;48.922;12.198;2023-09-12T17:37:10;26.30;64.60
484;DHT22;228;48.922;12.198;2023-09-12T17:39:36;26.20;65.70
484;DHT22;228;48.922;12.198;2023-09-12T17:42:05;26.00;66.00
484;DHT22;228;48.922;12.198;2023-09-12T17:44:31;25.90;66.80
484;DHT22;228;48.922;12.198;2023-09-12T17:46:57;25.90;67.30
484;DHT22;228;48.922;12.198;2023-09-12T17:49:25;25.70;68.30
484;DHT22;228;48.922;12.198;2023-09-12T17:51:51;25.90;68.10
484;DHT22;228;48.922;12.198;2023-09-12T17:54:17;25.90;68.50
484;DHT22;228;48.922;12.198;2023-09-12T17:56:44;25.70;69.40
484;DHT22;228;48.922;12.198;2023-09-12T17:59:10;25.80;68.90
484;DHT22;228;48.922;12.198;2023-09-12T18:01:36;26.00;68.80
484;DHT22;228;48.922;12.198;2023-09-12T18:04:02;26.10;68.50
484;DHT22;228;48.922;12.198;2023-09-12T18:06:29;26.10;68.20
484;DHT22;228;48.922;12.198;2023-09-12T18:08:57;26.20;68.20
484;DHT22;228;48.922;12.198;2023-09-12T18:11:23;26.20;67.50
484;DHT22;228;48.922;12.198;2023-09-12T18:13:49;26.20;67.50
484;DHT22;228;48.922;12.198;2023-09-12T18:16:16;26.10;68.10
484;DHT22;228;48.922;12.198;2023-09-12T18:18:43;26.00;68.50
484;DHT22;228;48.922;12.198;2023-09-12T18:21:09;25.90;69.30
484;DHT22;228;48.922;12.198;2023-09-12T18:23:35;25.90;69.10
484;DHT22;228;48.922;12.198;2023-09-12T18:26:07;25.90;69.10
484;DHT22;228;48.922;12.198;2023-09-12T18:28:39;25.60;69.80
484;DHT22;228;48.922;12.198;2023-09-12T18:31:11;25.30;70.80
484;DHT22;228;48.922;12.198;2023-09-12T18:33:37;25.20;72.00
484;DHT22;228;48.922;12.198;2023-09-12T18:36:04;25.20;71.60
484;DHT22;228;48.922;12.198;2023-09-12T18:38:31;25.30;71.10
484;DHT22;228;48.922;12.198;2023-09-12T18:40:57;25.30;70.90
484;DHT22;228;48.922;12.198;2023-09-12T18:43:23;25.50;70.90
484;DHT22;228;48.922;12.198;2023-09-12T18:45:50;25.50;70.80
484;DHT22;228;48.922;12.198;2023-09-12T18:48:16;25.40;70.70
484;DHT22;228;48.922;12.198;2023-09-12T18:50:42;25.40;71.60
484;DHT22;228;48.922;12.198;2023-09-12T18:53:09;25.10;71.70
484;DHT22;228;48.922;12.198;2023-09-12T18:55:41;25.00;72.40
484;DHT22;228;48.922;12.198;2023-09-12T18:58:08;24.90;72.80
484;DHT22;228;48.922;12.198;2023-09-12T19:00:36;24.90;72.60
484;DHT22;228;48.922;12.198;2023-09-12T19:03:03;25.10;71.80
484;DHT22;228;48.922;12.198;2023-09-12T19:05:30;24.90;71.50
484;DHT22;228;48.922;12.198;2023-09-12T19:07:56;24.70;72.50
484;DHT22;228;48.922;12.198;2023-09-12T19:10:22;24.70;71.50
484;DHT22;228;48.922;12.198;2023-09-12T19:12:48;24.80;70.80
484;DHT22;228;48.922;12.198;2023-09-12T19:15:15;24.50;71.60
484;DHT22;228;48.922;12.198;2023-09-12T19:17:42;24.50;72.60
484;DHT22;228;48.922;12.198;2023-09-12T19:20:08;24.40;73.00
484;DHT22;228;48.922;12.198;2023-09-12T19:22:35;24.20;73.30
484;DHT22;228;48.922;12.198;2023-09-12T19:25:03;24.50;72.30
484;DHT22;228;48.922;12.198;2023-09-12T19:27:29;24.70;70.70
484;DHT22;228;48.922;12.198;2023-09-12T19:29:56;24.90;69.20
484;DHT22;228;48.922;12.198;2023-09-12T19:32:22;25.10;68.20
484;DHT22;228;48.922;12.198;2023-09-12T19:34:49;25.10;67.80
484;DHT22;228;48.922;12.198;2023-09-12T19:37:15;25.10;67.60
484;DHT22;228;48.922;12.198;2023-09-12T19:39:41;25.30;66.90
484;DHT22;228;48.922;12.198;2023-09-12T19:42:07;25.40;66.60
484;DHT22;228;48.922;12.198;2023-09-12T19:44:33;25.50;66.70
484;DHT22;228;48.922;12.198;2023-09-12T19:46:59;25.00;68.10
484;DHT22;228;48.922;12.198;2023-09-12T19:49:25;24.70;69.40
484;DHT22;228;48.922;12.198;2023-09-12T19:51:51;24.60;70.40
484;DHT22;228;48.922;12.198;2023-09-12T19:54:18;24.40;70.90
484;DHT22;228;48.922;12.198;2023-09-12T19:56:44;24.60;70.90
484;DHT22;228;48.922;12.198;2023-09-12T19:59:11;24.70;69.70
484;DHT22;228;48.922;12.198;2023-09-12T20:01:37;24.70;69.30
484;DHT22;228;48.922;12.198;2023-09-12T20:04:04;24.90;68.80
484;DHT22;228;48.922;12.198;2023-09-12T20:06:30;24.90;68.30
484;DHT22;228;48.922;12.198;2023-09-12T20:08:57;24.60;69.00
484;DHT22;228;48.922;12.198;2023-09-12T20:11:23;24.70;69.30
484;DHT22;228;48.922;12.198;2023-09-12T20:13:49;24.50;70.30
484;DHT22;228;48.922;12.198;2023-09-12T20:16:17;24.50;70.50
484;DHT22;228;48.922;12.198;2023-09-12T20:18:44;24.90;69.50
484;DHT22;228;48.922;12.198;2023-09-12T20:21:10;25.30;68.50
484;DHT22;228;48.922;12.198;2023-09-12T20:23:38;25.20;67.90
484;DHT22;228;48.922;12.198;2023-09-12T20:26:05;24.80;68.90
484;DHT22;228;48.922;12.198;2023-09-12T20:28:38;24.80;69.80
484;DHT22;228;48.922;12.198;2023-09-12T20:31:05;24.70;70.60
484;DHT22;228;48.922;12.198;2023-09-12T20:33:31;24.50;72.70
484;DHT22;228;48.922;12.198;2023-09-12T20:35:57;24.70;72.70
484;DHT22;228;48.922;12.198;2023-09-12T20:38:24;25.00;71.40
484;DHT22;228;48.922;12.198;2023-09-12T20:40:50;24.60;73.00
484;DHT22;228;48.922;12.198;2023-09-12T20:43:16;24.20;74.00